Time;durP1;ratioP1;P1;durP2;ratioP2;P2;SDS_P1;SDS_P2;PMS_P1;PMS_P2;Temp;Humidity;BMP_temperature;BMP_pressure;BME280_temperature;BME280_humidity;BME280_pressure;Samples;Min_cycle;Max_cycle;Signal;HPM_P1;HPM_P2
2020/12/17 00:00:55;;;;;;;35.70;18.27;;;;;;;;;;4977874;28;21218;-72
2020/12/17 00:03:59;;;;;;;37.37;18.80;;;;;;;;;;4977368;28;21090;-72
2020/12/17 00:07:03;;;;;;;37.73;17.20;;;;;;;;;;4977846;28;21101;-72
2020/12/17 00:10:11;;;;;;;35.87;18.23;;;;;;;;;;4978029;28;20871;-72
2020/12/17 00:13:15;;;;;;;37.67;19.33;;;;;;;;;;4978008;28;21131;-72
2020/12/17 00:16:19;;;;;;;36.17;18.53;;;;;;;;;;4978184;28;20551;-72
2020/12/17 00:19:24;;;;;;;35.83;17.80;;;;;;;;;;4977557;28;20598;-72
2020/12/17 00:22:33;;;;;;;38.80;17.43;;;;;;;;;;4977614;28;20630;-72
2020/12/17 00:25:37;;;;;;;40.37;19.70;;;;;;;;;;4978250;28;20547;-73
2020/12/17 00:28:41;;;;;;;36.63;19.43;;;;;;;;;;4977417;28;21100;-72
2020/12/17 00:31:45;;;;;;;34.47;18.90;;;;;;;;;;4976516;28;20622;-72
2020/12/17 00:34:50;;;;;;;44.27;19.40;;;;;;;;;;4977539;28;20598;-72
2020/12/17 00:37:54;;;;;;;35.13;18.57;;;;;;;;;;4977448;28;20597;-72
2020/12/17 00:40:58;;;;;;;43.37;18.87;;;;;;;;;;4977185;28;20618;-72
2020/12/17 00:44:02;;;;;;;41.47;18.50;;;;;;;;;;4976350;28;20550;-72
2020/12/17 00:47:06;;;;;;;39.23;18.87;;;;;;;;;;4977510;28;21092;-72
2020/12/17 00:50:13;;;;;;;36.53;18.77;;;;;;;;;;4977493;28;20547;-72
2020/12/17 00:53:17;;;;;;;50.07;19.67;;;;;;;;;;4977266;28;20546;-72
2020/12/17 00:56:21;;;;;;;40.07;19.10;;;;;;;;;;4976109;28;20554;-72
2020/12/17 00:59:25;;;;;;;35.73;19.40;;;;;;;;;;4977103;28;20598;-72
2020/12/17 01:02:29;;;;;;;41.67;19.80;;;;;;;;;;4977080;28;20621;-72
2020/12/17 01:05:34;;;;;;;39.90;18.87;;;;;;;;;;4977031;28;20906;-72
2020/12/17 01:08:38;;;;;;;45.53;20.17;;;;;;;;;;4977262;28;20903;-72
2020/12/17 01:11:42;;;;;;;47.00;19.33;;;;;;;;;;4976948;28;21198;-72
2020/12/17 01:14:46;;;;;;;41.00;20.53;;;;;;;;;;4976895;28;20547;-72
2020/12/17 01:17:51;;;;;;;65.87;20.43;;;;;;;;;;4976514;28;20607;-72
2020/12/17 01:20:55;;;;;;;44.80;19.53;;;;;;;;;;4975886;28;21209;-72
2020/12/17 01:23:59;;;;;;;55.93;19.47;;;;;;;;;;4976525;28;20617;-72
2020/12/17 01:27:03;;;;;;;51.33;18.43;;;;;;;;;;4976382;28;21112;-72
2020/12/17 01:30:07;;;;;;;49.67;19.97;;;;;;;;;;4976847;28;21053;-72
2020/12/17 01:33:11;;;;;;;39.83;17.43;;;;;;;;;;4976546;28;20559;-72
2020/12/17 01:36:16;;;;;;;44.63;19.77;;;;;;;;;;4976756;28;20911;-72
2020/12/17 01:39:25;;;;;;;40.37;18.10;;;;;;;;;;4976371;28;20602;-72
2020/12/17 01:42:29;;;;;;;41.07;17.73;;;;;;;;;;4964416;28;20625;-72
2020/12/17 01:45:33;;;;;;;35.73;15.90;;;;;;;;;;4975523;28;20543;-71
2020/12/17 01:48:38;;;;;;;57.83;17.27;;;;;;;;;;4976058;28;20543;-72
2020/12/17 01:51:42;;;;;;;40.07;16.67;;;;;;;;;;4975318;28;20630;-72
2020/12/17 01:54:54;;;;;;;34.30;17.43;;;;;;;;;;4976422;28;20546;-72
2020/12/17 01:58:02;;;;;;;33.37;16.83;;;;;;;;;;4976084;28;20553;-72
2020/12/17 02:01:11;;;;;;;41.17;17.17;;;;;;;;;;4975960;28;20615;-72
2020/12/17 02:04:16;;;;;;;35.63;15.20;;;;;;;;;;4975160;28;20543;-72
2020/12/17 02:07:21;;;;;;;35.53;15.77;;;;;;;;;;4975045;28;20542;-72
2020/12/17 02:10:26;;;;;;;44.07;16.87;;;;;;;;;;4975830;28;20571;-72
2020/12/17 02:13:33;;;;;;;34.87;15.90;;;;;;;;;;4975774;28;20887;-72
2020/12/17 02:16:37;;;;;;;50.40;15.37;;;;;;;;;;4975924;28;20911;-72
2020/12/17 02:19:41;;;;;;;34.87;16.63;;;;;;;;;;4963975;28;20598;-72
2020/12/17 02:22:45;;;;;;;45.80;16.03;;;;;;;;;;4974753;28;21234;-72
2020/12/17 02:25:50;;;;;;;39.57;15.77;;;;;;;;;;4975711;28;20558;-72
2020/12/17 02:28:55;;;;;;;38.13;18.00;;;;;;;;;;4975425;28;20601;-72
2020/12/17 02:31:59;;;;;;;37.63;16.67;;;;;;;;;;4975185;28;20629;-72
2020/12/17 02:35:04;;;;;;;36.60;16.03;;;;;;;;;;4975419;28;20546;-72
2020/12/17 02:38:08;;;;;;;39.90;16.77;;;;;;;;;;4974537;28;20539;-72
2020/12/17 02:41:12;;;;;;;44.93;16.97;;;;;;;;;;4974939;28;20618;-72
2020/12/17 02:44:16;;;;;;;42.37;17.90;;;;;;;;;;4975479;28;20547;-72
2020/12/17 02:47:21;;;;;;;44.93;18.37;;;;;;;;;;4974270;28;20567;-72
2020/12/17 02:50:25;;;;;;;45.00;17.17;;;;;;;;;;4975442;28;20543;-72
2020/12/17 02:53:29;;;;;;;58.67;17.70;;;;;;;;;;4975324;28;20542;-72
2020/12/17 02:56:33;;;;;;;33.33;17.70;;;;;;;;;;4975850;28;20546;-72
2020/12/17 02:59:37;;;;;;;35.90;17.27;;;;;;;;;;4974920;28;20603;-72
2020/12/17 03:02:41;;;;;;;33.03;15.33;;;;;;;;;;4974922;28;20633;-72
2020/12/17 03:05:46;;;;;;;51.20;16.17;;;;;;;;;;4974928;28;20551;-72
2020/12/17 03:08:49;;;;;;;29.13;15.10;;;;;;;;;;4974865;28;20550;-72
2020/12/17 03:11:54;;;;;;;30.27;15.27;;;;;;;;;;4976526;28;20970;-72
2020/12/17 03:14:58;;;;;;;32.97;15.30;;;;;;;;;;4974765;28;20558;-72
2020/12/17 03:18:02;;;;;;;42.53;16.00;;;;;;;;;;4973712;28;20602;-72
2020/12/17 03:21:06;;;;;;;28.37;15.17;;;;;;;;;;4973673;28;21238;-72
2020/12/17 03:24:10;;;;;;;44.03;15.50;;;;;;;;;;5000859;23;20700;-72
2020/12/17 03:27:14;;;;;;;53.27;16.77;;;;;;;;;;4993716;28;20936;-73
2020/12/17 03:30:18;;;;;;;32.13;14.47;;;;;;;;;;4994307;28;20542;-74
2020/12/17 03:33:23;;;;;;;38.07;16.13;;;;;;;;;;4974320;28;20554;-73
2020/12/17 03:36:27;;;;;;;43.17;15.10;;;;;;;;;;4962688;28;20543;-73
2020/12/17 03:39:31;;;;;;;40.87;16.97;;;;;;;;;;4974461;28;20597;-73
2020/12/17 03:42:35;;;;;;;34.00;16.07;;;;;;;;;;4974119;28;20629;-73
2020/12/17 03:45:39;;;;;;;56.20;16.40;;;;;;;;;;4962513;28;20916;-74
2020/12/17 03:48:42;;;;;;;36.73;16.20;;;;;;;;;;4979989;28;20538;-73
2020/12/17 03:51:47;;;;;;;40.90;15.93;;;;;;;;;;4962523;28;20630;-73
2020/12/17 03:54:51;;;;;;;32.73;14.73;;;;;;;;;;4962603;28;20555;-73
2020/12/17 03:57:55;;;;;;;51.57;16.07;;;;;;;;;;4974291;28;20543;-73
2020/12/17 04:00:59;;;;;;;44.43;15.73;;;;;;;;;;4974093;28;20653;-73
2020/12/17 04:04:03;;;;;;;40.57;16.40;;;;;;;;;;4974440;28;20598;-73
2020/12/17 04:07:07;;;;;;;29.63;15.87;;;;;;;;;;4951622;28;20606;-73
2020/12/17 04:10:12;;;;;;;32.53;15.73;;;;;;;;;;4974148;28;20593;-74
2020/12/17 04:13:16;;;;;;;35.13;16.20;;;;;;;;;;4973882;28;20550;-74
2020/12/17 04:16:20;;;;;;;35.17;15.97;;;;;;;;;;4974417;28;20547;-73
2020/12/17 04:19:24;;;;;;;31.63;16.03;;;;;;;;;;4962188;28;20547;-73
2020/12/17 04:22:28;;;;;;;39.83;16.97;;;;;;;;;;4962184;28;20630;-73
2020/12/17 04:25:33;;;;;;;35.10;15.70;;;;;;;;;;4974399;28;20904;-73
2020/12/17 04:28:37;;;;;;;48.93;16.07;;;;;;;;;;4984687;28;20547;-74
2020/12/17 04:31:41;;;;;;;33.17;16.80;;;;;;;;;;4952242;28;20625;-73
2020/12/17 04:34:45;;;;;;;33.47;15.43;;;;;;;;;;4965380;28;20601;-73
2020/12/17 04:37:49;;;;;;;50.87;16.37;;;;;;;;;;4965590;28;20934;-73
2020/12/17 04:40:54;;;;;;;41.87;16.60;;;;;;;;;;4977684;28;20661;-73
2020/12/17 04:43:59;;;;;;;36.40;16.50;;;;;;;;;;4955048;28;20538;-73
2020/12/17 04:47:05;;;;;;;33.30;16.47;;;;;;;;;;4977246;28;20558;-74
2020/12/17 04:50:11;;;;;;;31.63;15.83;;;;;;;;;;4977317;28;20546;-74
2020/12/17 04:53:15;;;;;;;41.00;15.53;;;;;;;;;;4977160;28;20598;-74
2020/12/17 04:56:19;;;;;;;34.73;16.57;;;;;;;;;;4977096;28;20604;-74
2020/12/17 04:59:40;;;;;;;32.47;16.63;;;;;;;;;;4976989;28;20602;-74
2020/12/17 05:02:46;;;;;;;30.23;16.67;;;;;;;;;;4965079;28;20621;-73
2020/12/17 05:05:51;;;;;;;30.33;15.50;;;;;;;;;;4965069;28;20554;-74
2020/12/17 05:08:55;;;;;;;34.67;15.70;;;;;;;;;;4965250;28;20542;-74
2020/12/17 05:12:00;;;;;;;30.87;15.93;;;;;;;;;;4976574;28;20621;-74
2020/12/17 05:15:04;;;;;;;28.37;15.10;;;;;;;;;;4964947;28;20543;-74
2020/12/17 05:18:09;;;;;;;32.87;15.80;;;;;;;;;;4976585;28;20571;-73
2020/12/17 05:21:13;;;;;;;29.70;16.13;;;;;;;;;;4976841;28;20670;-74
2020/12/17 05:24:21;;;;;;;31.87;15.20;;;;;;;;;;4977164;28;20614;-73
2020/12/17 05:27:26;;;;;;;28.10;14.27;;;;;;;;;;4976628;28;20543;-73
2020/12/17 05:30:32;;;;;;;26.23;14.27;;;;;;;;;;4976594;28;20539;-73
2020/12/17 05:33:36;;;;;;;24.37;13.33;;;;;;;;;;4986945;28;20558;-74
2020/12/17 05:36:41;;;;;;;26.80;14.23;;;;;;;;;;4976478;28;20879;-74
2020/12/17 05:39:44;;;;;;;26.23;14.10;;;;;;;;;;4964396;28;20574;-73
2020/12/17 05:42:49;;;;;;;26.33;14.47;;;;;;;;;;4975097;28;20982;-73
2020/12/17 05:45:53;;;;;;;25.53;13.53;;;;;;;;;;4976556;28;20543;-74
2020/12/17 05:49:08;;;;;;;25.80;12.53;;;;;;;;;;4964742;28;20886;-73
2020/12/17 05:52:20;;;;;;;33.17;13.20;;;;;;;;;;4986269;28;20622;-73
2020/12/17 05:55:25;;;;;;;31.53;13.73;;;;;;;;;;4964119;28;20559;-74
2020/12/17 05:58:44;;;;;;;22.00;13.27;;;;;;;;;;4975994;28;20546;-74
2020/12/17 06:01:48;;;;;;;24.43;12.07;;;;;;;;;;4975533;28;20658;-74
2020/12/17 06:05:21;;;;;;;25.33;12.90;;;;;;;;;;4975947;28;20886;-74
2020/12/17 06:08:33;;;;;;;21.23;12.03;;;;;;;;;;4986451;28;20883;-74
2020/12/17 06:11:37;;;;;;;28.00;11.93;;;;;;;;;;4975521;28;20626;-73
2020/12/17 06:14:44;;;;;;;23.97;12.77;;;;;;;;;;4964425;28;20990;-74
2020/12/17 06:17:58;;;;;;;19.73;12.17;;;;;;;;;;4963481;28;20610;-73
2020/12/17 06:21:05;;;;;;;23.70;11.07;;;;;;;;;;4975926;28;20657;-74
2020/12/17 06:24:09;;;;;;;21.33;10.43;;;;;;;;;;4975464;28;20961;-73
2020/12/17 06:27:14;;;;;;;18.63;11.13;;;;;;;;;;4975550;28;20562;-73
2020/12/17 06:30:21;;;;;;;18.40;11.20;;;;;;;;;;4963868;28;21086;-73
2020/12/17 06:33:26;;;;;;;17.30;10.13;;;;;;;;;;4975110;28;20695;-73
2020/12/17 06:36:40;;;;;;;16.30;9.93;;;;;;;;;;4952497;28;20550;-73
2020/12/17 06:39:48;;;;;;;15.60;9.97;;;;;;;;;;4975584;28;20539;-73
2020/12/17 06:42:53;;;;;;;19.90;9.53;;;;;;;;;;4963181;28;20618;-73
2020/12/17 06:45:57;;;;;;;15.17;9.67;;;;;;;;;;4963509;28;20551;-73
2020/12/17 06:49:07;;;;;;;14.67;9.43;;;;;;;;;;4974857;28;20606;-74
2020/12/17 06:52:11;;;;;;;17.93;9.87;;;;;;;;;;4974866;28;20626;-71
2020/12/17 06:55:42;;;;;;;20.57;9.87;;;;;;;;;;4975446;28;20562;-73
2020/12/17 06:58:46;;;;;;;13.87;9.50;;;;;;;;;;4963328;28;20535;-73
2020/12/17 07:01:50;;;;;;;21.80;8.93;;;;;;;;;;4962945;28;20665;-73
2020/12/17 07:04:55;;;;;;;16.23;10.07;;;;;;;;;;4974087;28;20555;-72
2020/12/17 07:07:59;;;;;;;16.27;9.83;;;;;;;;;;4975417;28;20542;-73
2020/12/17 07:11:03;;;;;;;17.67;10.30;;;;;;;;;;4963310;28;20633;-72
2020/12/17 07:14:26;;;;;;;20.70;10.07;;;;;;;;;;4974080;28;20550;-73
2020/12/17 07:17:30;;;;;;;22.97;9.63;;;;;;;;;;4974824;28;20555;-73
2020/12/17 07:20:35;;;;;;;19.73;9.57;;;;;;;;;;4973995;28;20606;-73
2020/12/17 07:23:40;;;;;;;17.90;10.27;;;;;;;;;;4985061;28;20610;-73
2020/12/17 07:26:44;;;;;;;18.77;11.00;;;;;;;;;;4963063;28;20563;-73
2020/12/17 07:29:50;;;;;;;26.73;9.80;;;;;;;;;;4962779;28;20547;-72
2020/12/17 07:32:54;;;;;;;15.80;8.97;;;;;;;;;;4962556;28;20605;-72
2020/12/17 07:35:58;;;;;;;18.33;9.80;;;;;;;;;;4985040;28;20887;-73
2020/12/17 07:39:07;;;;;;;19.37;9.97;;;;;;;;;;4974591;28;20546;-73
2020/12/17 07:42:12;;;;;;;15.13;9.73;;;;;;;;;;4984645;28;20657;-73
2020/12/17 07:45:35;;;;;;;14.77;9.17;;;;;;;;;;4962349;28;20598;-73
2020/12/17 07:48:54;;;;;;;15.63;9.23;;;;;;;;;;4962333;28;20559;-73
2020/12/17 07:51:58;;;;;;;14.10;9.00;;;;;;;;;;4984717;28;20962;-74
2020/12/17 07:55:03;;;;;;;12.90;9.00;;;;;;;;;;4963100;28;20546;-74
2020/12/17 07:58:07;;;;;;;11.33;7.60;;;;;;;;;;4962321;28;20613;-72
2020/12/17 08:01:12;;;;;;;10.77;7.43;;;;;;;;;;4962104;28;20657;-72
2020/12/17 08:04:17;;;;;;;11.50;8.10;;;;;;;;;;4962645;28;20895;-73
2020/12/17 08:07:21;;;;;;;11.90;9.03;;;;;;;;;;4976865;28;20554;-73
2020/12/17 08:10:25;;;;;;;11.77;9.63;;;;;;;;;;4988918;28;21088;-73
2020/12/17 08:13:30;;;;;;;13.57;9.73;;;;;;;;;;4988973;28;20871;-73
2020/12/17 08:16:35;;;;;;;14.07;11.07;;;;;;;;;;4977890;28;20891;-73
2020/12/17 08:19:39;;;;;;;11.37;8.90;;;;;;;;;;4955314;28;20547;-73
2020/12/17 08:22:44;;;;;;;13.07;7.63;;;;;;;;;;4965617;28;21227;-74
2020/12/17 08:25:47;;;;;;;10.33;7.10;;;;;;;;;;4965796;28;21085;-73
2020/12/17 08:28:52;;;;;;;9.80;6.70;;;;;;;;;;4977515;28;20554;-74
2020/12/17 08:31:56;;;;;;;10.50;8.00;;;;;;;;;;4965575;28;21192;-74
2020/12/17 08:35:00;;;;;;;8.77;6.27;;;;;;;;;;4977946;28;21159;-74
2020/12/17 08:38:10;;;;;;;10.33;6.83;;;;;;;;;;4977906;28;20542;-72
2020/12/17 08:41:17;;;;;;;22.27;17.40;;;;;;;;;;4987865;28;20662;-73
2020/12/17 08:44:34;;;;;;;19.57;14.53;;;;;;;;;;4977802;28;20547;-73
2020/12/17 08:47:41;;;;;;;12.60;9.53;;;;;;;;;;4977942;28;20563;-73
2020/12/17 08:50:46;;;;;;;24.17;16.00;;;;;;;;;;4966292;28;20946;-73
2020/12/17 08:53:50;;;;;;;12.00;9.30;;;;;;;;;;4978096;28;20551;-73
2020/12/17 08:56:59;;;;;;;18.97;12.47;;;;;;;;;;4977846;28;20542;-73
2020/12/17 09:00:14;;;;;;;26.20;16.73;;;;;;;;;;4977463;28;20543;-74
2020/12/17 09:03:19;;;;;;;10.53;7.43;;;;;;;;;;4976900;28;20586;-73
2020/12/17 09:06:33;;;;;;;8.77;6.37;;;;;;;;;;4987479;28;20547;-73
2020/12/17 09:09:39;;;;;;;7.77;6.60;;;;;;;;;;4976995;28;20964;-73
2020/12/17 09:12:44;;;;;;;14.50;10.43;;;;;;;;;;4976446;28;20618;-73
2020/12/17 09:15:59;;;;;;;11.53;9.10;;;;;;;;;;4976697;28;21107;-74
2020/12/17 09:19:08;;;;;;;16.17;11.33;;;;;;;;;;4986888;28;20606;-73
2020/12/17 09:22:14;;;;;;;27.37;17.70;;;;;;;;;;4987243;28;20654;-74
2020/12/17 09:25:27;;;;;;;39.20;23.77;;;;;;;;;;4994458;23;20692;-71
2020/12/17 09:28:31;;;;;;;23.70;14.57;;;;;;;;;;4995875;28;20877;-71
2020/12/17 09:31:35;;;;;;;8.93;6.53;;;;;;;;;;4995708;28;20627;-71
2020/12/17 09:34:39;;;;;;;8.03;5.97;;;;;;;;;;4995998;28;20631;-71
2020/12/17 09:38:04;;;;;;;8.77;6.60;;;;;;;;;;4994898;28;20546;-71
2020/12/17 09:41:08;;;;;;;8.37;6.47;;;;;;;;;;4995757;28;21234;-71
2020/12/17 09:44:13;;;;;;;8.37;6.67;;;;;;;;;;4995819;28;20542;-71
2020/12/17 09:47:31;;;;;;;7.67;6.17;;;;;;;;;;4995783;28;20554;-71
2020/12/17 09:50:35;;;;;;;7.53;5.67;;;;;;;;;;4995612;28;20538;-71
2020/12/17 09:53:41;;;;;;;8.57;6.53;;;;;;;;;;4995663;28;20202;-71
2020/12/17 09:57:02;;;;;;;8.80;6.87;;;;;;;;;;4994758;28;20609;-71
2020/12/17 10:00:09;;;;;;;9.23;7.40;;;;;;;;;;4995543;28;20546;-71
2020/12/17 10:03:17;;;;;;;10.77;8.57;;;;;;;;;;4995424;28;20602;-71
2020/12/17 10:06:22;;;;;;;8.03;6.23;;;;;;;;;;4995408;28;20579;-71
2020/12/17 10:09:27;;;;;;;8.40;7.50;;;;;;;;;;4995790;28;21068;-71
2020/12/17 10:12:31;;;;;;;10.27;8.60;;;;;;;;;;4983058;28;21191;-71
2020/12/17 10:15:35;;;;;;;7.70;6.33;;;;;;;;;;4994189;28;20546;-71
2020/12/17 10:18:39;;;;;;;6.00;5.20;;;;;;;;;;4994904;28;20541;-71
2020/12/17 10:21:46;;;;;;;8.53;6.80;;;;;;;;;;4993905;28;20696;-71
2020/12/17 10:24:50;;;;;;;7.13;6.43;;;;;;;;;;4994815;28;20600;-71
2020/12/17 10:27:59;;;;;;;8.93;7.87;;;;;;;;;;4983064;28;20182;-71
2020/12/17 10:31:03;;;;;;;8.43;6.57;;;;;;;;;;4993818;28;20218;-71
2020/12/17 10:34:07;;;;;;;10.90;8.97;;;;;;;;;;4995184;28;20634;-71
2020/12/17 10:37:11;;;;;;;8.73;7.83;;;;;;;;;;4994834;28;20190;-71
2020/12/17 10:40:15;;;;;;;8.97;7.70;;;;;;;;;;4994966;28;20182;-71
2020/12/17 10:43:19;;;;;;;9.57;8.07;;;;;;;;;;4994691;28;20214;-71
2020/12/17 10:46:23;;;;;;;8.70;7.80;;;;;;;;;;4994014;28;20182;-71
2020/12/17 10:49:27;;;;;;;7.87;6.40;;;;;;;;;;4994639;28;20202;-71
2020/12/17 10:52:32;;;;;;;6.83;6.13;;;;;;;;;;4994519;28;20209;-71
2020/12/17 10:55:36;;;;;;;7.80;5.93;;;;;;;;;;4993601;28;20182;-71
2020/12/17 10:58:41;;;;;;;10.47;5.67;;;;;;;;;;4994476;28;20182;-71
2020/12/17 11:01:45;;;;;;;9.73;6.23;;;;;;;;;;4994424;28;20229;-71
2020/12/17 11:04:49;;;;;;;9.23;6.27;;;;;;;;;;4994676;28;20178;-71
2020/12/17 11:07:54;;;;;;;7.07;6.03;;;;;;;;;;4994639;28;20182;-71
2020/12/17 11:10:58;;;;;;;8.23;6.23;;;;;;;;;;4994224;28;20217;-71
2020/12/17 11:14:03;;;;;;;11.43;5.60;;;;;;;;;;4994272;28;20541;-71
2020/12/17 11:17:07;;;;;;;6.67;5.70;;;;;;;;;;4994363;28;20182;-71
2020/12/17 11:20:12;;;;;;;7.90;6.50;;;;;;;;;;4994240;28;20186;-71
2020/12/17 11:23:17;;;;;;;7.27;6.20;;;;;;;;;;4992983;28;20549;-71
2020/12/17 11:26:22;;;;;;;8.80;6.40;;;;;;;;;;4994264;28;20185;-71
2020/12/17 11:29:26;;;;;;;7.47;6.23;;;;;;;;;;4994482;28;20186;-71
2020/12/17 11:32:30;;;;;;;9.30;6.83;;;;;;;;;;4993164;28;20218;-71
2020/12/17 11:35:35;;;;;;;8.00;5.93;;;;;;;;;;4993253;28;20184;-71
2020/12/17 11:38:38;;;;;;;6.87;5.70;;;;;;;;;;4993678;28;20205;-71
2020/12/17 11:41:47;;;;;;;6.37;5.43;;;;;;;;;;4994255;28;20217;-71
2020/12/17 11:44:52;;;;;;;6.80;6.10;;;;;;;;;;4998068;28;20629;-71
2020/12/17 11:47:56;;;;;;;7.10;5.90;;;;;;;;;;4997987;28;20178;-71
2020/12/17 11:51:01;;;;;;;7.33;6.20;;;;;;;;;;4997823;28;20584;-71
2020/12/17 11:54:05;;;;;;;6.47;5.40;;;;;;;;;;4997854;28;20190;-71
2020/12/17 11:57:10;;;;;;;7.50;5.87;;;;;;;;;;4985886;28;20178;-71
2020/12/17 12:00:14;;;;;;;6.70;5.87;;;;;;;;;;4996968;28;20182;-71
2020/12/17 12:03:19;;;;;;;7.90;5.70;;;;;;;;;;4997452;28;20681;-71
2020/12/17 12:06:23;;;;;;;8.23;6.33;;;;;;;;;;4996769;28;20516;-71
2020/12/17 12:09:27;;;;;;;7.37;5.87;;;;;;;;;;4997452;28;20526;-71
2020/12/17 12:12:31;;;;;;;8.17;6.03;;;;;;;;;;4997362;28;20210;-71
2020/12/17 12:15:35;;;;;;;7.10;5.90;;;;;;;;;;4997163;28;20178;-71
2020/12/17 12:18:41;;;;;;;7.60;5.90;;;;;;;;;;4997108;28;20182;-71
2020/12/17 12:21:49;;;;;;;6.83;5.73;;;;;;;;;;4985025;28;20222;-71
2020/12/17 12:24:53;;;;;;;6.87;5.70;;;;;;;;;;4997127;28;20206;-71
2020/12/17 12:27:58;;;;;;;7.27;6.00;;;;;;;;;;4997220;28;20186;-72
2020/12/17 12:31:05;;;;;;;6.60;5.90;;;;;;;;;;4997139;28;20214;-73
2020/12/17 12:34:09;;;;;;;6.40;5.77;;;;;;;;;;4996097;28;20190;-73
2020/12/17 12:37:15;;;;;;;8.30;6.10;;;;;;;;;;4996998;28;20561;-72
2020/12/17 12:40:19;;;;;;;7.77;6.17;;;;;;;;;;4996898;28;20182;-72
2020/12/17 12:43:24;;;;;;;8.23;6.40;;;;;;;;;;4996802;28;20205;-72
2020/12/17 12:46:28;;;;;;;8.23;6.27;;;;;;;;;;4996828;28;20186;-72
2020/12/17 12:49:32;;;;;;;7.20;6.30;;;;;;;;;;4996803;28;20178;-72
2020/12/17 12:52:36;;;;;;;10.63;7.90;;;;;;;;;;4996470;28;20218;-72
2020/12/17 12:55:44;;;;;;;8.80;7.47;;;;;;;;;;4997132;28;20186;-72
2020/12/17 12:58:48;;;;;;;7.07;6.03;;;;;;;;;;4996692;28;20186;-72
2020/12/17 13:01:53;;;;;;;7.23;6.50;;;;;;;;;;4996527;28;20218;-72
2020/12/17 13:04:57;;;;;;;8.77;5.83;;;;;;;;;;4996166;28;20194;-72
2020/12/17 13:08:01;;;;;;;7.30;6.17;;;;;;;;;;4996603;28;20186;-72
2020/12/17 13:11:13;;;;;;;8.07;6.80;;;;;;;;;;4995335;28;20218;-72
2020/12/17 13:14:16;;;;;;;8.33;6.70;;;;;;;;;;4995559;28;20179;-72
2020/12/17 13:17:20;;;;;;;27.07;7.70;;;;;;;;;;4996198;28;20648;-73
2020/12/17 13:20:27;;;;;;;9.73;5.97;;;;;;;;;;4995977;28;20178;-72
2020/12/17 13:23:31;;;;;;;40.73;10.40;;;;;;;;;;4996165;28;20210;-73
2020/12/17 13:26:35;;;;;;;8.53;6.43;;;;;;;;;;4995829;28;20198;-72
2020/12/17 13:29:39;;;;;;;7.43;6.73;;;;;;;;;;4996101;28;20182;-72
2020/12/17 13:32:44;;;;;;;7.60;6.53;;;;;;;;;;4995783;28;20214;-72
2020/12/17 13:35:48;;;;;;;8.87;6.67;;;;;;;;;;4995353;28;20622;-72
2020/12/17 13:38:52;;;;;;;8.60;6.50;;;;;;;;;;4995985;28;20182;-72
2020/12/17 13:41:56;;;;;;;7.33;5.97;;;;;;;;;;4994966;28;20221;-73
2020/12/17 13:45:00;;;;;;;8.23;6.60;;;;;;;;;;4996314;28;20178;-73
2020/12/17 13:48:05;;;;;;;9.13;7.50;;;;;;;;;;4994952;28;20178;-73
2020/12/17 13:51:18;;;;;;;9.33;7.30;;;;;;;;;;4995864;28;20214;-72
2020/12/17 13:54:23;;;;;;;7.60;6.80;;;;;;;;;;4995599;28;20190;-72
2020/12/17 13:57:27;;;;;;;8.87;7.20;;;;;;;;;;4995198;28;20568;-73
2020/12/17 14:00:31;;;;;;;8.90;7.80;;;;;;;;;;4994383;28;20194;-72
2020/12/17 14:03:35;;;;;;;8.83;7.27;;;;;;;;;;4993823;28;20209;-72
2020/12/17 14:06:39;;;;;;;8.50;7.13;;;;;;;;;;4995364;28;20183;-72
2020/12/17 14:09:43;;;;;;;9.20;7.30;;;;;;;;;;4995024;28;20182;-72
2020/12/17 14:12:47;;;;;;;13.07;7.50;;;;;;;;;;4994032;28;20213;-72
2020/12/17 14:15:52;;;;;;;8.60;7.37;;;;;;;;;;4994918;28;20202;-72
2020/12/17 14:18:58;;;;;;;9.50;7.97;;;;;;;;;;4995118;28;20174;-72
2020/12/17 14:22:02;;;;;;;10.60;8.07;;;;;;;;;;4995609;28;20218;-72
2020/12/17 14:25:06;;;;;;;12.40;8.13;;;;;;;;;;4993963;28;20198;-72
2020/12/17 14:28:10;;;;;;;10.53;7.40;;;;;;;;;;4994142;28;20206;-72
2020/12/17 14:31:16;;;;;;;9.07;7.57;;;;;;;;;;4995054;28;20688;-72
2020/12/17 14:34:20;;;;;;;8.63;7.33;;;;;;;;;;4994783;28;20178;-72
2020/12/17 14:37:24;;;;;;;9.30;7.60;;;;;;;;;;4994939;28;20178;-72
2020/12/17 14:40:28;;;;;;;10.60;7.93;;;;;;;;;;4993906;28;20186;-72
2020/12/17 14:43:32;;;;;;;10.00;8.57;;;;;;;;;;4994883;28;20210;-72
2020/12/17 14:46:36;;;;;;;9.33;7.57;;;;;;;;;;4994340;28;20182;-72
2020/12/17 14:49:41;;;;;;;11.43;8.97;;;;;;;;;;4994961;28;20178;-72
2020/12/17 14:52:45;;;;;;;9.37;8.07;;;;;;;;;;4994523;28;20214;-72
2020/12/17 14:55:51;;;;;;;10.47;7.90;;;;;;;;;;4994492;28;20680;-72
2020/12/17 14:58:55;;;;;;;11.27;8.33;;;;;;;;;;4994817;28;20542;-72
2020/12/17 15:02:00;;;;;;;10.13;8.50;;;;;;;;;;4994693;28;20561;-72
2020/12/17 15:05:04;;;;;;;12.73;9.33;;;;;;;;;;4994401;28;20538;-72
2020/12/17 15:08:08;;;;;;;11.33;9.03;;;;;;;;;;4994241;28;20941;-73
2020/12/17 15:11:17;;;;;;;10.83;8.60;;;;;;;;;;4993323;28;20981;-72
2020/12/17 15:14:21;;;;;;;11.07;9.30;;;;;;;;;;4994288;28;20622;-72
2020/12/17 15:17:25;;;;;;;11.77;9.17;;;;;;;;;;4993813;28;20596;-75
2020/12/17 15:20:41;;;;;;;12.97;10.27;;;;;;;;;;4993810;28;20941;-72
2020/12/17 15:23:46;;;;;;;12.07;9.40;;;;;;;;;;4993122;28;20657;-72
2020/12/17 15:26:50;;;;;;;10.40;8.33;;;;;;;;;;4993814;28;20558;-72
2020/12/17 15:29:54;;;;;;;10.87;9.30;;;;;;;;;;4993922;28;20545;-72
2020/12/17 15:32:58;;;;;;;13.57;9.80;;;;;;;;;;4993570;28;20617;-73
2020/12/17 15:36:03;;;;;;;11.77;9.90;;;;;;;;;;5007557;23;20704;-74
2020/12/17 15:39:07;;;;;;;10.90;9.53;;;;;;;;;;4981919;28;20545;-74
2020/12/17 15:42:11;;;;;;;17.13;12.00;;;;;;;;;;4986522;28;20633;-75
2020/12/17 15:45:15;;;;;;;14.80;11.20;;;;;;;;;;4993836;28;20534;-74
2020/12/17 15:48:20;;;;;;;14.90;10.53;;;;;;;;;;4993672;28;20566;-74
2020/12/17 15:51:27;;;;;;;10.73;8.83;;;;;;;;;;4993575;28;20628;-74
2020/12/17 15:54:31;;;;;;;12.37;10.10;;;;;;;;;;4993912;28;20541;-75
2020/12/17 15:57:35;;;;;;;13.93;10.47;;;;;;;;;;4993384;28;20605;-74
2020/12/17 16:00:40;;;;;;;15.43;11.20;;;;;;;;;;4993029;28;20546;-74
2020/12/17 16:03:44;;;;;;;14.60;10.90;;;;;;;;;;4993310;28;20640;-74
2020/12/17 16:06:52;;;;;;;12.97;10.23;;;;;;;;;;4993731;28;20609;-74
2020/12/17 16:10:00;;;;;;;15.47;11.43;;;;;;;;;;4981694;28;20542;-74
2020/12/17 16:13:04;;;;;;;18.93;13.40;;;;;;;;;;4992481;28;20558;-74
2020/12/17 16:16:12;;;;;;;47.23;31.00;;;;;;;;;;4981369;28;20548;-75
2020/12/17 16:19:17;;;;;;;41.13;24.93;;;;;;;;;;4993711;28;21094;-73
2020/12/17 16:22:21;;;;;;;35.63;25.27;;;;;;;;;;4992532;28;20632;-74
2020/12/17 16:25:25;;;;;;;32.13;21.33;;;;;;;;;;4993654;28;20530;-75
2020/12/17 16:28:29;;;;;;;42.97;27.23;;;;;;;;;;4996190;28;20608;-74
2020/12/17 16:31:34;;;;;;;31.80;22.03;;;;;;;;;;4996725;28;20992;-74
2020/12/17 16:34:38;;;;;;;30.43;20.17;;;;;;;;;;4997093;28;20969;-74
2020/12/17 16:37:42;;;;;;;27.80;18.87;;;;;;;;;;4995970;28;20549;-75
2020/12/17 16:40:58;;;;;;;23.57;16.07;;;;;;;;;;4996182;28;20550;-75
2020/12/17 16:44:03;;;;;;;22.47;14.80;;;;;;;;;;4988767;28;20640;-75
2020/12/17 16:47:07;;;;;;;26.57;17.27;;;;;;;;;;4987634;28;20610;-75
2020/12/17 16:50:12;;;;;;;30.53;19.57;;;;;;;;;;4977287;28;20542;-74
2020/12/17 16:53:16;;;;;;;28.73;16.67;;;;;;;;;;4964152;28;20626;-74
2020/12/17 16:56:20;;;;;;;27.80;19.40;;;;;;;;;;4976906;28;20624;-73
2020/12/17 16:59:26;;;;;;;25.13;17.30;;;;;;;;;;4995142;28;20550;-74
2020/12/17 17:02:30;;;;;;;25.30;17.87;;;;;;;;;;4961836;28;20650;-75
2020/12/17 17:05:37;;;;;;;26.67;17.83;;;;;;;;;;4957911;28;20619;-74
2020/12/17 17:08:41;;;;;;;24.77;16.70;;;;;;;;;;4966438;28;20591;-75
2020/12/17 17:11:46;;;;;;;21.87;15.43;;;;;;;;;;4957438;28;20658;-75
2020/12/17 17:14:51;;;;;;;22.87;15.53;;;;;;;;;;4972423;28;20602;-75
2020/12/17 17:17:56;;;;;;;21.00;14.13;;;;;;;;;;4956642;29;20636;-74
2020/12/17 17:21:01;;;;;;;20.27;14.20;;;;;;;;;;4957344;29;20979;-74
2020/12/17 17:24:05;;;;;;;20.63;14.20;;;;;;;;;;4945594;29;20619;-74
2020/12/17 17:27:09;;;;;;;21.00;14.40;;;;;;;;;;4973561;28;21204;-73
2020/12/17 17:30:13;;;;;;;19.27;13.30;;;;;;;;;;4976865;28;20597;-73
2020/12/17 17:33:17;;;;;;;20.60;13.67;;;;;;;;;;4976509;28;20902;-73
2020/12/17 17:36:22;;;;;;;18.67;13.67;;;;;;;;;;4964377;28;20626;-74
2020/12/17 17:39:26;;;;;;;17.90;13.10;;;;;;;;;;4969274;28;20578;-73
2020/12/17 17:42:30;;;;;;;17.77;13.43;;;;;;;;;;4963837;28;20654;-73
2020/12/17 17:45:34;;;;;;;19.47;13.37;;;;;;;;;;4956385;28;21158;-75
2020/12/17 17:48:39;;;;;;;18.43;12.63;;;;;;;;;;4973632;28;20602;-75
2020/12/17 17:51:49;;;;;;;19.33;13.90;;;;;;;;;;4956811;29;20635;-74
2020/12/17 17:54:53;;;;;;;22.23;14.03;;;;;;;;;;4975107;28;20615;-74
2020/12/17 17:57:58;;;;;;;17.37;12.40;;;;;;;;;;4957990;28;20623;-75
2020/12/17 18:01:03;;;;;;;18.67;12.90;;;;;;;;;;4957943;28;20651;-74
2020/12/17 18:04:08;;;;;;;20.37;15.30;;;;;;;;;;4957083;29;20591;-74
2020/12/17 18:07:11;;;;;;;28.70;17.13;;;;;;;;;;4963409;28;20602;-74
2020/12/17 18:10:16;;;;;;;44.13;26.73;;;;;;;;;;4965152;28;20583;-74